sensor_id;sensor_type;location;lat;lon;timestamp;pressure;altitude;pressure_sealevel;temperature;humidity
21803;BME280;18591;47.080;22.214;2022-08-04T00:01:16;99641.16;;;24.89;42.34
21803;BME280;18591;47.080;22.214;2022-08-04T00:03:23;99636.81;;;24.96;42.33
21803;BME280;18591;47.080;22.214;2022-08-04T00:07:41;99634.25;;;24.85;42.66
21803;BME280;18591;47.080;22.214;2022-08-04T00:09:59;99634.81;;;24.88;42.68
21803;BME280;18591;47.080;22.214;2022-08-04T00:12:03;99631.63;;;24.83;42.43
21803;BME280;18591;47.080;22.214;2022-08-04T00:14:12;99629.63;;;24.75;43.18
21803;BME280;18591;47.080;22.214;2022-08-04T00:16:15;99628.03;;;24.73;42.88
21803;BME280;18591;47.080;22.214;2022-08-04T00:19:09;99638.31;;;24.71;43.51
21803;BME280;18591;47.080;22.214;2022-08-04T00:20:44;99637.44;;;24.70;42.86
21803;BME280;18591;47.080;22.214;2022-08-04T00:22:47;99633.41;;;24.65;43.18
21803;BME280;18591;47.080;22.214;2022-08-04T00:24:49;99642.81;;;24.62;43.32
21803;BME280;18591;47.080;22.214;2022-08-04T00:26:54;99634.16;;;24.57;43.58
21803;BME280;18591;47.080;22.214;2022-08-04T00:28:56;99640.66;;;24.56;43.41
21803;BME280;18591;47.080;22.214;2022-08-04T00:30:59;99639.94;;;24.54;43.43
21803;BME280;18591;47.080;22.214;2022-08-04T00:33:02;99649.16;;;24.53;43.69
21803;BME280;18591;47.080;22.214;2022-08-04T00:35:04;99648.72;;;24.48;43.43
21803;BME280;18591;47.080;22.214;2022-08-04T00:37:07;99643.41;;;24.46;43.32
21803;BME280;18591;47.080;22.214;2022-08-04T00:39:13;99635.84;;;24.39;43.48
21803;BME280;18591;47.080;22.214;2022-08-04T00:41:37;99643.66;;;24.33;43.88
21803;BME280;18591;47.080;22.214;2022-08-04T00:44:23;99641.22;;;24.30;44.07
21803;BME280;18591;47.080;22.214;2022-08-04T00:49:21;99648.56;;;24.30;43.58
21803;BME280;18591;47.080;22.214;2022-08-04T01:01:59;99648.25;;;24.13;44.31
21803;BME280;18591;47.080;22.214;2022-08-04T01:08:51;99643.63;;;24.14;43.34
21803;BME280;18591;47.080;22.214;2022-08-04T01:15:45;99650.38;;;23.81;45.09
21803;BME280;18591;47.080;22.214;2022-08-04T01:20:08;99647.91;;;23.78;44.41
21803;BME280;18591;47.080;22.214;2022-08-04T01:27:01;99637.59;;;23.70;45.34
21803;BME280;18591;47.080;22.214;2022-08-04T01:29:08;99639.81;;;23.76;44.83
21803;BME280;18591;47.080;22.214;2022-08-04T01:31:30;99639.47;;;23.69;44.89
21803;BME280;18591;47.080;22.214;2022-08-04T01:33:36;99640.47;;;23.68;44.85
21803;BME280;18591;47.080;22.214;2022-08-04T01:36:04;99641.50;;;23.67;45.42
21803;BME280;18591;47.080;22.214;2022-08-04T01:38:20;99634.69;;;23.62;45.11
21803;BME280;18591;47.080;22.214;2022-08-04T01:40:25;99631.53;;;23.66;44.68
21803;BME280;18591;47.080;22.214;2022-08-04T01:42:30;99639.91;;;23.65;44.96
21803;BME280;18591;47.080;22.214;2022-08-04T01:44:35;99634.28;;;23.66;44.65
21803;BME280;18591;47.080;22.214;2022-08-04T01:46:37;99636.88;;;23.68;44.91
21803;BME280;18591;47.080;22.214;2022-08-04T01:48:46;99633.97;;;23.60;44.95
21803;BME280;18591;47.080;22.214;2022-08-04T01:50:51;99635.28;;;23.65;44.87
21803;BME280;18591;47.080;22.214;2022-08-04T01:52:54;99638.44;;;23.61;44.58
21803;BME280;18591;47.080;22.214;2022-08-04T01:54:58;99635.97;;;23.58;44.66
21803;BME280;18591;47.080;22.214;2022-08-04T01:57:04;99635.84;;;23.59;44.92
21803;BME280;18591;47.080;22.214;2022-08-04T01:59:29;99632.53;;;23.56;44.75
21803;BME280;18591;47.080;22.214;2022-08-04T02:01:35;99631.50;;;23.57;44.95
21803;BME280;18591;47.080;22.214;2022-08-04T02:03:40;99624.31;;;23.56;44.83
21803;BME280;18591;47.080;22.214;2022-08-04T02:09:08;99632.16;;;23.39;45.29
21803;BME280;18591;47.080;22.214;2022-08-04T02:11:17;99640.38;;;23.39;45.16
21803;BME280;18591;47.080;22.214;2022-08-04T02:13:30;99637.06;;;23.36;45.28
21803;BME280;18591;47.080;22.214;2022-08-04T02:20:08;99635.28;;;23.25;45.76
21803;BME280;18591;47.080;22.214;2022-08-04T02:22:16;99630.38;;;23.29;46.21
21803;BME280;18591;47.080;22.214;2022-08-04T02:24:20;99625.59;;;23.21;45.27
21803;BME280;18591;47.080;22.214;2022-08-04T02:26:28;99624.56;;;23.22;45.64
21803;BME280;18591;47.080;22.214;2022-08-04T02:29:55;99632.16;;;23.09;46.45
21803;BME280;18591;47.080;22.214;2022-08-04T02:31:52;99624.69;;;23.11;46.08
21803;BME280;18591;47.080;22.214;2022-08-04T02:34:07;99626.84;;;23.07;45.72
21803;BME280;18591;47.080;22.214;2022-08-04T02:36:15;99628.69;;;23.07;46.03
21803;BME280;18591;47.080;22.214;2022-08-04T02:40:53;99617.25;;;23.01;45.89
21803;BME280;18591;47.080;22.214;2022-08-04T02:43:02;99628.66;;;22.97;45.55
21803;BME280;18591;47.080;22.214;2022-08-04T02:45:05;99618.56;;;22.97;45.64
21803;BME280;18591;47.080;22.214;2022-08-04T02:47:08;99627.16;;;22.93;46.02
21803;BME280;18591;47.080;22.214;2022-08-04T02:49:13;99627.69;;;22.87;45.67
21803;BME280;18591;47.080;22.214;2022-08-04T02:51:21;99631.31;;;22.87;46.83
21803;BME280;18591;47.080;22.214;2022-08-04T02:53:24;99623.56;;;22.71;46.29
21803;BME280;18591;47.080;22.214;2022-08-04T02:55:28;99631.78;;;22.71;46.11
21803;BME280;18591;47.080;22.214;2022-08-04T02:57:31;99635.09;;;22.75;46.93
21803;BME280;18591;47.080;22.214;2022-08-04T03:02:15;99642.66;;;22.61;46.72
21803;BME280;18591;47.080;22.214;2022-08-04T03:06:58;99647.50;;;22.58;47.25
21803;BME280;18591;47.080;22.214;2022-08-04T03:16:29;99642.38;;;22.44;47.26
21803;BME280;18591;47.080;22.214;2022-08-04T03:41:38;99647.50;;;22.37;48.47
21803;BME280;18591;47.080;22.214;2022-08-04T03:53:48;99645.16;;;22.32;48.97
21803;BME280;18591;47.080;22.214;2022-08-04T03:56:11;99646.16;;;22.31;48.57
21803;BME280;18591;47.080;22.214;2022-08-04T04:06:02;99650.13;;;22.38;48.83
21803;BME280;18591;47.080;22.214;2022-08-04T04:10:58;99655.06;;;22.45;48.57
21803;BME280;18591;47.080;22.214;2022-08-04T04:25:34;99667.56;;;22.58;48.84
21803;BME280;18591;47.080;22.214;2022-08-04T04:30:24;99676.91;;;22.56;50.19
21803;BME280;18591;47.080;22.214;2022-08-04T04:35:10;99672.91;;;22.60;49.59
21803;BME280;18591;47.080;22.214;2022-08-04T04:48:57;99666.50;;;22.92;50.00
21803;BME280;18591;47.080;22.214;2022-08-04T04:51:09;99668.91;;;23.06;50.94
21803;BME280;18591;47.080;22.214;2022-08-04T04:56:09;99669.00;;;23.16;51.44
21803;BME280;18591;47.080;22.214;2022-08-04T04:58:16;99662.72;;;23.35;50.64
21803;BME280;18591;47.080;22.214;2022-08-04T05:00:19;99672.47;;;23.48;50.32
21803;BME280;18591;47.080;22.214;2022-08-04T05:09:41;99664.38;;;23.78;49.06
21803;BME280;18591;47.080;22.214;2022-08-04T05:12:13;99668.56;;;23.91;48.92
21803;BME280;18591;47.080;22.214;2022-08-04T05:14:45;99669.75;;;23.99;48.83
21803;BME280;18591;47.080;22.214;2022-08-04T05:22:06;99673.81;;;24.14;47.75
21803;BME280;18591;47.080;22.214;2022-08-04T05:24:18;99679.91;;;24.27;47.79
21803;BME280;18591;47.080;22.214;2022-08-04T05:26:25;99671.38;;;24.40;47.40
21803;BME280;18591;47.080;22.214;2022-08-04T05:28:38;99670.88;;;24.46;47.78
21803;BME280;18591;47.080;22.214;2022-08-04T05:30:46;99678.22;;;24.55;47.64
21803;BME280;18591;47.080;22.214;2022-08-04T05:35:08;99678.94;;;24.77;47.43
21803;BME280;18591;47.080;22.214;2022-08-04T05:37:14;99682.84;;;24.84;47.52
21803;BME280;18591;47.080;22.214;2022-08-04T05:39:24;99678.47;;;24.91;47.59
21803;BME280;18591;47.080;22.214;2022-08-04T05:41:33;99688.16;;;25.05;47.56
21803;BME280;18591;47.080;22.214;2022-08-04T05:43:47;99685.38;;;25.15;47.47
21803;BME280;18591;47.080;22.214;2022-08-04T05:45:51;99683.50;;;25.15;47.64
21803;BME280;18591;47.080;22.214;2022-08-04T05:47:54;99685.56;;;25.23;47.50
21803;BME280;18591;47.080;22.214;2022-08-04T05:49:56;99682.06;;;25.31;47.27
21803;BME280;18591;47.080;22.214;2022-08-04T05:52:03;99682.72;;;25.42;47.13
21803;BME280;18591;47.080;22.214;2022-08-04T05:54:07;99688.94;;;25.45;47.45
21803;BME280;18591;47.080;22.214;2022-08-04T05:56:12;99686.56;;;25.59;47.11
21803;BME280;18591;47.080;22.214;2022-08-04T05:58:14;99682.97;;;25.59;46.86
21803;BME280;18591;47.080;22.214;2022-08-04T06:00:17;99681.47;;;25.64;46.48
21803;BME280;18591;47.080;22.214;2022-08-04T06:02:40;99686.94;;;25.74;46.40
21803;BME280;18591;47.080;22.214;2022-08-04T06:04:46;99688.34;;;25.88;46.45
21803;BME280;18591;47.080;22.214;2022-08-04T06:06:49;99689.63;;;25.94;46.34
21803;BME280;18591;47.080;22.214;2022-08-04T06:08:53;99690.41;;;26.04;46.29
21803;BME280;18591;47.080;22.214;2022-08-04T06:10:56;99691.47;;;26.21;46.16
21803;BME280;18591;47.080;22.214;2022-08-04T06:13:06;99690.84;;;26.27;45.74
21803;BME280;18591;47.080;22.214;2022-08-04T06:15:30;99693.06;;;26.41;45.49
21803;BME280;18591;47.080;22.214;2022-08-04T06:17:39;99696.06;;;26.48;45.30
21803;BME280;18591;47.080;22.214;2022-08-04T06:20:02;99694.44;;;26.55;45.25
21803;BME280;18591;47.080;22.214;2022-08-04T06:22:23;99697.50;;;26.52;45.35
21803;BME280;18591;47.080;22.214;2022-08-04T06:24:30;99691.81;;;26.54;45.63
21803;BME280;18591;47.080;22.214;2022-08-04T06:26:34;99694.75;;;26.52;45.09
21803;BME280;18591;47.080;22.214;2022-08-04T06:28:40;99694.28;;;26.57;45.76
21803;BME280;18591;47.080;22.214;2022-08-04T06:30:43;99686.63;;;26.68;45.17
21803;BME280;18591;47.080;22.214;2022-08-04T06:32:48;99691.34;;;26.76;44.99
21803;BME280;18591;47.080;22.214;2022-08-04T06:35:06;99685.91;;;26.84;44.79
21803;BME280;18591;47.080;22.214;2022-08-04T06:37:09;99685.00;;;27.02;44.54
21803;BME280;18591;47.080;22.214;2022-08-04T06:39:12;99692.00;;;27.14;44.65
21803;BME280;18591;47.080;22.214;2022-08-04T06:41:15;99693.84;;;27.23;44.45
21803;BME280;18591;47.080;22.214;2022-08-04T06:43:18;99689.91;;;27.26;44.60
21803;BME280;18591;47.080;22.214;2022-08-04T06:45:20;99695.84;;;27.39;44.41
21803;BME280;18591;47.080;22.214;2022-08-04T06:47:23;99686.78;;;27.55;44.26
21803;BME280;18591;47.080;22.214;2022-08-04T06:49:27;99686.47;;;27.66;43.93
21803;BME280;18591;47.080;22.214;2022-08-04T06:51:45;99685.13;;;27.70;43.26
21803;BME280;18591;47.080;22.214;2022-08-04T06:53:50;99689.19;;;27.84;43.52
21803;BME280;18591;47.080;22.214;2022-08-04T06:55:53;99692.19;;;27.99;43.32
21803;BME280;18591;47.080;22.214;2022-08-04T06:57:58;99691.84;;;28.10;42.79
21803;BME280;18591;47.080;22.214;2022-08-04T07:00:11;99685.19;;;28.21;41.46
21803;BME280;18591;47.080;22.214;2022-08-04T07:02:17;99695.38;;;28.29;41.51
21803;BME280;18591;47.080;22.214;2022-08-04T07:04:21;99691.94;;;28.43;41.16
21803;BME280;18591;47.080;22.214;2022-08-04T07:06:22;99691.31;;;28.49;40.62
21803;BME280;18591;47.080;22.214;2022-08-04T07:08:26;99694.25;;;28.56;40.26
21803;BME280;18591;47.080;22.214;2022-08-04T07:10:29;99685.28;;;28.62;40.05
21803;BME280;18591;47.080;22.214;2022-08-04T07:12:31;99693.06;;;28.75;39.67
21803;BME280;18591;47.080;22.214;2022-08-04T07:14:34;99691.84;;;28.85;39.85
21803;BME280;18591;47.080;22.214;2022-08-04T07:16:39;99693.22;;;28.98;39.89
21803;BME280;18591;47.080;22.214;2022-08-04T07:18:42;99681.66;;;29.11;39.89
21803;BME280;18591;47.080;22.214;2022-08-04T07:20:45;99679.75;;;29.19;39.51
21803;BME280;18591;47.080;22.214;2022-08-04T07:22:48;99681.81;;;29.25;39.73
21803;BME280;18591;47.080;22.214;2022-08-04T07:24:53;99672.97;;;29.38;38.90
21803;BME280;18591;47.080;22.214;2022-08-04T07:26:57;99680.91;;;29.49;39.87
21803;BME280;18591;47.080;22.214;2022-08-04T07:29:00;99672.75;;;29.56;39.02
21803;BME280;18591;47.080;22.214;2022-08-04T07:31:04;99670.50;;;29.68;39.11
21803;BME280;18591;47.080;22.214;2022-08-04T07:33:06;99670.09;;;29.79;39.39
21803;BME280;18591;47.080;22.214;2022-08-04T07:35:09;99665.53;;;29.94;39.22
21803;BME280;18591;47.080;22.214;2022-08-04T07:37:32;99670.84;;;30.04;38.95
21803;BME280;18591;47.080;22.214;2022-08-04T07:39:40;99667.50;;;30.17;37.91
21803;BME280;18591;47.080;22.214;2022-08-04T07:41:49;99671.78;;;30.28;35.92
21803;BME280;18591;47.080;22.214;2022-08-04T07:43:52;99674.63;;;30.43;35.40
21803;BME280;18591;47.080;22.214;2022-08-04T07:45:55;99673.16;;;30.55;34.60
21803;BME280;18591;47.080;22.214;2022-08-04T07:47:57;99670.13;;;30.65;33.92
21803;BME280;18591;47.080;22.214;2022-08-04T07:50:08;99669.72;;;30.76;32.28
21803;BME280;18591;47.080;22.214;2022-08-04T07:52:11;99669.97;;;30.89;33.56
21803;BME280;18591;47.080;22.214;2022-08-04T07:54:16;99669.72;;;30.99;32.37
21803;BME280;18591;47.080;22.214;2022-08-04T07:56:18;99663.22;;;31.07;32.23
21803;BME280;18591;47.080;22.214;2022-08-04T07:58:20;99664.84;;;31.16;32.40
21803;BME280;18591;47.080;22.214;2022-08-04T08:00:22;99669.41;;;31.32;32.00
21803;BME280;18591;47.080;22.214;2022-08-04T08:02:25;99667.72;;;31.45;32.05
21803;BME280;18591;47.080;22.214;2022-08-04T08:04:28;99674.69;;;31.56;31.22
21803;BME280;18591;47.080;22.214;2022-08-04T08:06:31;99672.22;;;31.61;30.91
21803;BME280;18591;47.080;22.214;2022-08-04T08:08:39;99667.22;;;31.72;31.51
21803;BME280;18591;47.080;22.214;2022-08-04T08:10:45;99663.88;;;31.76;30.39
21803;BME280;18591;47.080;22.214;2022-08-04T08:12:47;99672.66;;;31.80;30.55
21803;BME280;18591;47.080;22.214;2022-08-04T08:14:53;99661.16;;;31.83;30.30
21803;BME280;18591;47.080;22.214;2022-08-04T08:16:55;99658.38;;;31.83;29.36
21803;BME280;18591;47.080;22.214;2022-08-04T08:19:00;99661.25;;;31.89;29.34
21803;BME280;18591;47.080;22.214;2022-08-04T08:21:02;99661.41;;;31.96;29.94
21803;BME280;18591;47.080;22.214;2022-08-04T08:23:07;99671.25;;;31.99;29.42
21803;BME280;18591;47.080;22.214;2022-08-04T08:25:10;99671.91;;;32.01;29.40
21803;BME280;18591;47.080;22.214;2022-08-04T08:27:12;99668.66;;;32.12;30.02
21803;BME280;18591;47.080;22.214;2022-08-04T08:29:15;99674.09;;;32.20;29.89
21803;BME280;18591;47.080;22.214;2022-08-04T08:31:17;99678.22;;;32.24;28.76
21803;BME280;18591;47.080;22.214;2022-08-04T08:33:19;99679.88;;;32.40;29.44
21803;BME280;18591;47.080;22.214;2022-08-04T08:35:24;99681.97;;;32.53;29.22
21803;BME280;18591;47.080;22.214;2022-08-04T08:37:41;99678.78;;;32.56;27.90
21803;BME280;18591;47.080;22.214;2022-08-04T08:39:58;99677.94;;;32.56;27.81
21803;BME280;18591;47.080;22.214;2022-08-04T09:00:19;99685.00;;;33.23;27.41
21803;BME280;18591;47.080;22.214;2022-08-04T09:07:36;99688.06;;;33.34;26.81
21803;BME280;18591;47.080;22.214;2022-08-04T09:14:52;99686.31;;;33.55;26.73
21803;BME280;18591;47.080;22.214;2022-08-04T09:17:03;99685.03;;;33.57;26.58
21803;BME280;18591;47.080;22.214;2022-08-04T09:19:18;99688.13;;;33.69;27.37
21803;BME280;18591;47.080;22.214;2022-08-04T09:24:21;99688.63;;;33.79;26.58
21803;BME280;18591;47.080;22.214;2022-08-04T09:26:43;99681.34;;;33.78;25.58
21803;BME280;18591;47.080;22.214;2022-08-04T09:28:54;99687.16;;;33.83;25.16
21803;BME280;18591;47.080;22.214;2022-08-04T09:31:05;99681.59;;;33.83;25.02
21803;BME280;18591;47.080;22.214;2022-08-04T09:36:02;99687.00;;;33.98;25.08
21803;BME280;18591;47.080;22.214;2022-08-04T09:45:26;99689.06;;;34.18;25.76
21803;BME280;18591;47.080;22.214;2022-08-04T09:47:56;99681.09;;;34.15;25.79
21803;BME280;18591;47.080;22.214;2022-08-04T09:50:29;99679.41;;;34.20;26.20
21803;BME280;18591;47.080;22.214;2022-08-04T10:01:57;99670.47;;;34.38;23.92
21803;BME280;18591;47.080;22.214;2022-08-04T10:04:03;99668.13;;;34.48;25.19
21803;BME280;18591;47.080;22.214;2022-08-04T10:15:09;99665.59;;;34.60;23.73
21803;BME280;18591;47.080;22.214;2022-08-04T10:17:41;99662.16;;;34.65;24.41
21803;BME280;18591;47.080;22.214;2022-08-04T10:20:06;99656.59;;;34.65;24.48
21803;BME280;18591;47.080;22.214;2022-08-04T10:22:20;99660.69;;;34.69;24.67
21803;BME280;18591;47.080;22.214;2022-08-04T10:27:42;99648.66;;;34.75;25.08
21803;BME280;18591;47.080;22.214;2022-08-04T10:29:46;99661.56;;;34.89;25.16
21803;BME280;18591;47.080;22.214;2022-08-04T10:32:03;99661.34;;;34.84;24.46
21803;BME280;18591;47.080;22.214;2022-08-04T10:34:11;99656.63;;;34.85;25.01
21803;BME280;18591;47.080;22.214;2022-08-04T10:36:17;99659.63;;;34.90;24.78
21803;BME280;18591;47.080;22.214;2022-08-04T10:38:27;99651.66;;;34.94;25.19
21803;BME280;18591;47.080;22.214;2022-08-04T10:40:45;99655.53;;;34.93;25.15
21803;BME280;18591;47.080;22.214;2022-08-04T10:43:14;99649.75;;;34.94;25.22
21803;BME280;18591;47.080;22.214;2022-08-04T10:45:27;99646.09;;;35.00;25.61
21803;BME280;18591;47.080;22.214;2022-08-04T10:47:38;99651.91;;;35.05;25.92
21803;BME280;18591;47.080;22.214;2022-08-04T10:51:54;99657.94;;;35.09;25.91
21803;BME280;18591;47.080;22.214;2022-08-04T10:54:10;99660.50;;;35.10;25.62
21803;BME280;18591;47.080;22.214;2022-08-04T10:56:30;99656.44;;;35.13;25.13
21803;BME280;18591;47.080;22.214;2022-08-04T10:58:41;99653.84;;;35.11;24.68
21803;BME280;18591;47.080;22.214;2022-08-04T11:00:51;99647.66;;;35.09;25.04
21803;BME280;18591;47.080;22.214;2022-08-04T11:05:20;99645.91;;;35.08;24.82
21803;BME280;18591;47.080;22.214;2022-08-04T11:07:29;99657.09;;;35.15;24.82
21803;BME280;18591;47.080;22.214;2022-08-04T11:09:34;99649.78;;;35.21;24.86
21803;BME280;18591;47.080;22.214;2022-08-04T11:11:46;99640.53;;;35.20;24.54
21803;BME280;18591;47.080;22.214;2022-08-04T11:16:26;99643.34;;;35.20;24.93
21803;BME280;18591;47.080;22.214;2022-08-04T11:20:55;99641.63;;;35.13;24.08
21803;BME280;18591;47.080;22.214;2022-08-04T11:23:18;99644.81;;;35.03;24.18
21803;BME280;18591;47.080;22.214;2022-08-04T11:25:28;99651.91;;;35.19;24.75
21803;BME280;18591;47.080;22.214;2022-08-04T11:27:39;99641.59;;;35.26;24.97
21803;BME280;18591;47.080;22.214;2022-08-04T11:31:58;99636.41;;;35.49;24.91
21803;BME280;18591;47.080;22.214;2022-08-04T11:34:19;99639.38;;;35.54;24.13
21803;BME280;18591;47.080;22.214;2022-08-04T11:36:29;99632.75;;;35.62;24.63
21803;BME280;18591;47.080;22.214;2022-08-04T11:38:46;99635.09;;;35.65;24.10
21803;BME280;18591;47.080;22.214;2022-08-04T11:40:57;99620.28;;;35.58;24.37
21803;BME280;18591;47.080;22.214;2022-08-04T11:43:08;99623.06;;;35.65;24.34
21803;BME280;18591;47.080;22.214;2022-08-04T11:45:16;99627.56;;;35.66;24.51
21803;BME280;18591;47.080;22.214;2022-08-04T11:49:40;99622.41;;;35.63;24.25
21803;BME280;18591;47.080;22.214;2022-08-04T11:51:59;99613.78;;;35.78;24.58
21803;BME280;18591;47.080;22.214;2022-08-04T11:54:02;99611.63;;;35.80;24.00
21803;BME280;18591;47.080;22.214;2022-08-04T11:56:06;99609.47;;;35.82;24.58
21803;BME280;18591;47.080;22.214;2022-08-04T11:58:14;99608.84;;;35.73;23.81
21803;BME280;18591;47.080;22.214;2022-08-04T12:00:17;99621.56;;;35.62;24.38
21803;BME280;18591;47.080;22.214;2022-08-04T12:04:55;99605.41;;;35.71;23.84
21803;BME280;18591;47.080;22.214;2022-08-04T12:07:02;99603.69;;;35.76;23.74
21803;BME280;18591;47.080;22.214;2022-08-04T12:11:59;99610.78;;;35.79;23.45
21803;BME280;18591;47.080;22.214;2022-08-04T12:16:35;99606.03;;;35.80;23.47
21803;BME280;18591;47.080;22.214;2022-08-04T12:18:45;99598.91;;;35.84;23.33
21803;BME280;18591;47.080;22.214;2022-08-04T12:20:59;99595.50;;;35.82;23.63
21803;BME280;18591;47.080;22.214;2022-08-04T12:23:02;99595.50;;;35.82;23.88
21803;BME280;18591;47.080;22.214;2022-08-04T12:25:09;99601.69;;;35.84;23.77
21803;BME280;18591;47.080;22.214;2022-08-04T12:27:19;99592.91;;;35.73;23.87
21803;BME280;18591;47.080;22.214;2022-08-04T12:29:33;99592.06;;;35.73;23.88
21803;BME280;18591;47.080;22.214;2022-08-04T12:33:53;99584.97;;;35.77;23.08
21803;BME280;18591;47.080;22.214;2022-08-04T12:36:16;99597.22;;;35.76;22.29
21803;BME280;18591;47.080;22.214;2022-08-04T12:38:22;99585.38;;;35.81;22.74
21803;BME280;18591;47.080;22.214;2022-08-04T12:40:30;99596.53;;;35.87;22.26
21803;BME280;18591;47.080;22.214;2022-08-04T12:45:07;99595.03;;;35.85;22.08
21803;BME280;18591;47.080;22.214;2022-08-04T12:47:13;99593.50;;;35.89;22.45
21803;BME280;18591;47.080;22.214;2022-08-04T12:49:31;99591.78;;;35.94;22.17
21803;BME280;18591;47.080;22.214;2022-08-04T12:51:42;99580.41;;;35.89;21.59
21803;BME280;18591;47.080;22.214;2022-08-04T12:54:06;99587.91;;;35.89;21.57
21803;BME280;18591;47.080;22.214;2022-08-04T12:56:11;99581.94;;;35.79;21.47
21803;BME280;18591;47.080;22.214;2022-08-04T12:58:20;99579.38;;;35.77;21.66
21803;BME280;18591;47.080;22.214;2022-08-04T13:00:43;99583.88;;;35.85;21.48
21803;BME280;18591;47.080;22.214;2022-08-04T13:02:52;99578.91;;;35.87;21.45
21803;BME280;18591;47.080;22.214;2022-08-04T13:04:57;99578.28;;;35.85;20.86
21803;BME280;18591;47.080;22.214;2022-08-04T13:07:06;99582.59;;;35.81;20.76
21803;BME280;18591;47.080;22.214;2022-08-04T13:09:19;99573.56;;;35.79;20.94
21803;BME280;18591;47.080;22.214;2022-08-04T13:11:22;99578.47;;;35.83;21.53
21803;BME280;18591;47.080;22.214;2022-08-04T13:13:28;99578.66;;;35.88;21.44
21803;BME280;18591;47.080;22.214;2022-08-04T13:15:31;99568.13;;;35.90;21.33
21803;BME280;18591;47.080;22.214;2022-08-04T13:18:00;99576.53;;;35.84;20.66
21803;BME280;18591;47.080;22.214;2022-08-04T13:20:03;99572.44;;;35.86;20.95
21803;BME280;18591;47.080;22.214;2022-08-04T13:22:05;99572.91;;;35.83;21.29
21803;BME280;18591;47.080;22.214;2022-08-04T13:24:13;99578.28;;;35.85;21.03
21803;BME280;18591;47.080;22.214;2022-08-04T13:26:33;99563.56;;;35.96;21.04
21803;BME280;18591;47.080;22.214;2022-08-04T13:28:59;99575.84;;;35.95;21.25
21803;BME280;18591;47.080;22.214;2022-08-04T13:31:20;99580.16;;;35.91;20.96
21803;BME280;18591;47.080;22.214;2022-08-04T13:33:28;99569.22;;;35.89;20.42
21803;BME280;18591;47.080;22.214;2022-08-04T13:35:32;99563.63;;;35.89;20.96
21803;BME280;18591;47.080;22.214;2022-08-04T13:37:56;99561.50;;;35.85;20.86
21803;BME280;18591;47.080;22.214;2022-08-04T13:39:59;99561.91;;;35.88;20.78
21803;BME280;18591;47.080;22.214;2022-08-04T13:42:07;99562.34;;;35.85;20.13
21803;BME280;18591;47.080;22.214;2022-08-04T13:44:12;99564.94;;;35.87;19.97
21803;BME280;18591;47.080;22.214;2022-08-04T13:46:25;99552.69;;;35.81;19.98
21803;BME280;18591;47.080;22.214;2022-08-04T13:48:32;99557.63;;;35.86;20.44
21803;BME280;18591;47.080;22.214;2022-08-04T13:50:35;99562.16;;;35.80;20.26
21803;BME280;18591;47.080;22.214;2022-08-04T13:52:40;99558.72;;;35.78;19.74
21803;BME280;18591;47.080;22.214;2022-08-04T13:54:45;99551.00;;;35.73;19.65
21803;BME280;18591;47.080;22.214;2022-08-04T13:56:54;99552.09;;;35.72;19.75
21803;BME280;18591;47.080;22.214;2022-08-04T13:58:59;99546.06;;;35.75;20.36
21803;BME280;18591;47.080;22.214;2022-08-04T14:01:12;99541.56;;;35.74;20.61
21803;BME280;18591;47.080;22.214;2022-08-04T14:03:33;99547.78;;;35.76;19.96
21803;BME280;18591;47.080;22.214;2022-08-04T14:08:14;99554.91;;;35.66;19.66
21803;BME280;18591;47.080;22.214;2022-08-04T14:10:18;99541.59;;;35.54;20.14
21803;BME280;18591;47.080;22.214;2022-08-04T14:12:20;99550.69;;;35.43;19.98
21803;BME280;18591;47.080;22.214;2022-08-04T14:14:47;99539.72;;;35.42;20.07
21803;BME280;18591;47.080;22.214;2022-08-04T14:18:59;99531.97;;;35.44;20.26
21803;BME280;18591;47.080;22.214;2022-08-04T14:21:10;99532.63;;;35.39;19.81
21803;BME280;18591;47.080;22.214;2022-08-04T14:23:12;99532.84;;;35.44;20.12
21803;BME280;18591;47.080;22.214;2022-08-04T14:25:15;99528.53;;;35.48;19.86
21803;BME280;18591;47.080;22.214;2022-08-04T14:27:18;99530.25;;;35.49;20.30
21803;BME280;18591;47.080;22.214;2022-08-04T14:29:20;99536.72;;;35.43;19.63
21803;BME280;18591;47.080;22.214;2022-08-04T14:31:29;99534.34;;;35.47;19.28
21803;BME280;18591;47.080;22.214;2022-08-04T14:33:36;99536.72;;;35.43;19.80
21803;BME280;18591;47.080;22.214;2022-08-04T14:35:58;99535.44;;;35.46;20.05
21803;BME280;18591;47.080;22.214;2022-08-04T14:38:07;99529.19;;;35.44;19.83
21803;BME280;18591;47.080;22.214;2022-08-04T14:40:23;99530.44;;;35.48;19.91
21803;BME280;18591;47.080;22.214;2022-08-04T14:42:43;99539.91;;;35.53;20.18
21803;BME280;18591;47.080;22.214;2022-08-04T14:44:57;99529.81;;;35.59;20.25
21803;BME280;18591;47.080;22.214;2022-08-04T14:47:01;99537.50;;;35.57;20.09
21803;BME280;18591;47.080;22.214;2022-08-04T14:49:10;99534.13;;;35.48;20.13
21803;BME280;18591;47.080;22.214;2022-08-04T14:51:13;99525.56;;;35.43;20.34
21803;BME280;18591;47.080;22.214;2022-08-04T14:53:21;99533.09;;;35.36;20.46
21803;BME280;18591;47.080;22.214;2022-08-04T14:55:23;99532.63;;;35.39;20.49
21803;BME280;18591;47.080;22.214;2022-08-04T14:57:26;99530.28;;;35.36;20.32
21803;BME280;18591;47.080;22.214;2022-08-04T14:59:43;99523.22;;;35.33;20.26
21803;BME280;18591;47.080;22.214;2022-08-04T15:02:03;99523.63;;;35.37;20.83
21803;BME280;18591;47.080;22.214;2022-08-04T15:04:06;99531.16;;;35.37;20.65
21803;BME280;18591;47.080;22.214;2022-08-04T15:06:08;99528.59;;;35.28;20.70
21803;BME280;18591;47.080;22.214;2022-08-04T15:08:17;99526.25;;;35.25;20.47
21803;BME280;18591;47.080;22.214;2022-08-04T15:10:19;99518.72;;;35.26;20.72
21803;BME280;18591;47.080;22.214;2022-08-04T15:12:22;99524.97;;;35.28;20.76
21803;BME280;18591;47.080;22.214;2022-08-04T15:14:24;99520.03;;;35.30;20.87